createdAt,value
2019-03-17T00:03:02.592Z,5.27
2019-03-17T00:08:06.917Z,4.37
2019-03-17T00:13:10.459Z,4.10
2019-03-17T00:18:14.052Z,4.90
2019-03-17T00:23:17.558Z,4.60
2019-03-17T00:28:20.869Z,6.07
2019-03-17T00:33:24.086Z,6.33
2019-03-17T00:38:27.545Z,5.03
2019-03-17T00:43:30.755Z,5.47
2019-03-17T00:48:34.360Z,5.93
2019-03-17T00:53:37.570Z,5.53
2019-03-17T00:58:40.868Z,5.20
2019-03-17T01:03:43.945Z,5.97
2019-03-17T01:08:47.171Z,5.80
2019-03-17T01:13:50.497Z,6.30
2019-03-17T01:18:54.518Z,5.70
2019-03-17T01:23:58.040Z,5.90
2019-03-17T01:29:01.605Z,5.53
2019-03-17T01:34:04.452Z,6.80
2019-03-17T01:39:07.976Z,5.47
2019-03-17T01:44:10.938Z,5.93
2019-03-17T01:49:13.883Z,7.87
2019-03-17T01:54:17.032Z,6.93
2019-03-17T01:59:19.933Z,7.43
2019-03-17T02:04:22.385Z,7.20
2019-03-17T02:09:25.604Z,7.73
2019-03-17T02:14:29.140Z,8.27
2019-03-17T02:19:32.707Z,7.97
2019-03-17T02:24:35.533Z,7.33
2019-03-17T02:29:38.738Z,7.23
2019-03-17T02:34:41.629Z,6.70
2019-03-17T02:39:46.756Z,8.83
2019-03-17T02:44:50.277Z,6.33
2019-03-17T02:49:52.425Z,7.80
2019-03-17T02:54:56.434Z,7.77
2019-03-17T02:59:59.968Z,7.70
2019-03-17T03:05:04.021Z,7.77
2019-03-17T03:10:07.113Z,7.57
2019-03-17T03:15:10.204Z,7.80
2019-03-17T03:20:13.520Z,7.97
2019-03-17T03:25:16.696Z,7.60
2019-03-17T03:30:19.990Z,8.07
2019-03-17T03:35:23.647Z,8.60
2019-03-17T03:40:26.546Z,8.17
2019-03-17T03:45:30.061Z,8.10
2019-03-17T03:50:33.385Z,9.13
2019-03-17T03:55:36.245Z,9.00
2019-03-17T04:00:39.801Z,8.57
2019-03-17T04:05:43.389Z,11.77
2019-03-17T04:10:46.588Z,12.60
2019-03-17T04:15:49.851Z,12.00
2019-03-17T04:20:53.458Z,13.50
2019-03-17T04:25:56.610Z,15.83
2019-03-17T04:30:59.882Z,15.67
2019-03-17T04:36:03.382Z,19.27
2019-03-17T04:41:06.266Z,17.23
2019-03-17T04:46:08.878Z,17.17
2019-03-17T04:51:12.042Z,15.97
2019-03-17T04:56:15.257Z,15.67
2019-03-17T05:01:17.833Z,16.60
2019-03-17T05:06:21.063Z,13.67
2019-03-17T05:11:24.337Z,14.20
2019-03-17T05:16:27.599Z,13.70
2019-03-17T05:21:31.148Z,13.87
2019-03-17T05:26:34.865Z,14.40
2019-03-17T05:31:37.398Z,12.20
2019-03-17T05:36:42.349Z,13.67
2019-03-17T05:41:45.556Z,13.23
2019-03-17T05:46:49.028Z,13.23
2019-03-17T05:51:52.364Z,13.70
2019-03-17T05:56:56.064Z,2.00
2019-03-17T06:01:59.301Z,1.30
2019-03-17T06:07:02.201Z,1.50
2019-03-17T06:12:05.058Z,1.47
2019-03-17T06:17:08.309Z,1.30
2019-03-17T06:22:11.543Z,2.03
2019-03-17T06:27:14.428Z,1.83
2019-03-17T06:32:17.645Z,2.87
2019-03-17T06:37:30.524Z,2.37
2019-03-17T06:42:25.705Z,2.07
2019-03-17T06:47:28.914Z,2.30
2019-03-17T06:52:32.423Z,1.90
2019-03-17T06:57:35.729Z,1.60
2019-03-17T07:02:38.749Z,2.10
2019-03-17T07:07:44.291Z,2.20
2019-03-17T07:12:47.813Z,1.60
2019-03-17T07:17:50.691Z,2.87
2019-03-17T07:22:54.230Z,2.60
2019-03-17T07:27:57.455Z,2.27
2019-03-17T07:33:00.777Z,1.93
2019-03-17T07:38:03.659Z,3.60
2019-03-17T07:43:06.273Z,1.70
2019-03-17T07:48:09.779Z,2.37
2019-03-17T07:53:11.948Z,2.77
2019-03-17T07:58:15.161Z,2.47
2019-03-17T08:03:18.323Z,2.30
2019-03-17T08:08:22.853Z,3.93
2019-03-17T08:13:25.794Z,2.70
2019-03-17T08:18:28.894Z,2.73
2019-03-17T08:23:32.214Z,2.40
2019-03-17T08:28:35.221Z,2.67
2019-03-17T08:33:38.534Z,2.80
2019-03-17T08:38:41.679Z,3.20
2019-03-17T08:43:53.836Z,3.10
2019-03-17T08:48:49.741Z,3.33
2019-03-17T08:53:54.990Z,2.10
2019-03-17T08:58:58.200Z,2.70
2019-03-17T09:04:01.512Z,3.30
2019-03-17T09:09:07.618Z,3.23
2019-03-17T09:14:11.106Z,2.30
2019-03-17T09:19:14.752Z,3.50
2019-03-17T09:24:20.727Z,3.03
2019-03-17T09:29:23.260Z,2.90
2019-03-17T09:34:26.669Z,2.20
2019-03-17T09:39:30.229Z,2.00
2019-03-17T09:44:33.481Z,1.47
2019-03-17T09:49:36.969Z,1.77
2019-03-17T09:54:39.977Z,2.10
2019-03-17T09:59:44.632Z,1.77
2019-03-17T10:04:48.143Z,1.67
2019-03-17T10:09:51.679Z,2.03
2019-03-17T10:14:54.604Z,1.57
2019-03-17T10:19:58.265Z,1.77
2019-03-17T10:25:01.488Z,1.57
2019-03-17T10:30:05.247Z,1.20
2019-03-17T10:35:08.622Z,1.03
2019-03-17T10:40:13.119Z,1.77
2019-03-17T10:45:16.314Z,1.53
2019-03-17T10:50:19.515Z,2.80
2019-03-17T10:55:21.964Z,1.43
2019-03-17T11:00:25.498Z,1.37
2019-03-17T11:05:29.083Z,1.47
2019-03-17T11:10:31.674Z,1.57
2019-03-17T11:15:34.849Z,1.90
2019-03-17T11:20:37.327Z,1.40
2019-03-17T11:25:40.603Z,1.80
2019-03-17T11:30:45.676Z,1.70
2019-03-17T11:35:49.236Z,1.90
2019-03-17T11:40:52.855Z,1.70
2019-03-17T11:45:56.538Z,1.50
2019-03-17T11:50:59.985Z,1.00
2019-03-17T11:56:03.110Z,1.17
2019-03-17T12:01:06.913Z,1.53
2019-03-17T12:06:10.207Z,2.60
2019-03-17T12:11:13.637Z,1.47
2019-03-17T12:16:16.891Z,1.83
2019-03-17T12:21:20.225Z,2.93
2019-03-17T12:26:23.443Z,1.70
2019-03-17T12:31:26.762Z,4.00
2019-03-17T12:36:30.253Z,1.90
2019-03-17T12:41:33.802Z,2.40
2019-03-17T12:46:36.857Z,1.97
2019-03-17T12:51:39.530Z,1.80
2019-03-17T12:56:42.802Z,1.50
2019-03-17T13:01:46.155Z,2.10
2019-03-17T13:06:49.936Z,2.67
2019-03-17T13:11:53.593Z,1.37
2019-03-17T13:16:56.971Z,2.20
2019-03-17T13:22:00.636Z,2.10
2019-03-17T13:27:04.322Z,2.00
2019-03-17T13:32:07.683Z,2.03
2019-03-17T13:37:10.984Z,2.03
2019-03-17T13:42:14.288Z,1.67
2019-03-17T13:47:17.894Z,1.93
2019-03-17T13:52:21.172Z,2.00
2019-03-17T13:57:24.495Z,1.73
2019-03-17T14:02:27.816Z,1.53
2019-03-17T14:07:31.169Z,2.37
2019-03-17T14:12:34.212Z,1.97
2019-03-17T14:17:37.516Z,3.40
2019-03-17T14:22:40.894Z,1.20
2019-03-17T14:27:44.513Z,2.20
2019-03-17T14:32:48.128Z,1.60
2019-03-17T14:37:51.306Z,2.20
2019-03-17T14:42:55.657Z,2.13
2019-03-17T14:47:59.256Z,1.37
2019-03-17T14:53:02.854Z,1.50
2019-03-17T14:58:06.296Z,1.50
2019-03-17T15:03:09.494Z,1.70
2019-03-17T15:08:13.138Z,1.30
2019-03-17T15:13:16.845Z,2.40
2019-03-17T15:18:20.108Z,1.73
2019-03-17T15:23:23.067Z,2.50
2019-03-17T15:28:26.385Z,2.00
2019-03-17T15:33:30.025Z,2.17
2019-03-17T15:38:33.264Z,1.73
2019-03-17T15:43:36.861Z,2.57
2019-03-17T15:48:40.498Z,1.90
2019-03-17T15:53:44.106Z,1.53
2019-03-17T15:58:47.478Z,2.00
2019-03-17T16:03:50.693Z,2.30
2019-03-17T16:08:54.096Z,1.83
2019-03-17T16:13:57.000Z,1.37
2019-03-17T16:19:00.410Z,1.70
2019-03-17T16:24:04.070Z,1.40
2019-03-17T16:29:07.577Z,1.50
2019-03-17T16:34:11.315Z,1.80
2019-03-17T16:39:14.993Z,2.17
2019-03-17T16:44:18.618Z,1.50
2019-03-17T16:49:22.204Z,2.00
2019-03-17T16:54:25.244Z,2.00
2019-03-17T16:59:28.849Z,1.90
2019-03-17T17:04:32.293Z,3.20
2019-03-17T17:09:35.793Z,2.57
2019-03-17T17:14:39.288Z,2.20
2019-03-17T17:19:43.069Z,3.07
2019-03-17T17:24:46.973Z,1.90
2019-03-17T17:29:50.863Z,2.17
2019-03-17T17:34:54.505Z,2.40
2019-03-17T17:39:58.428Z,2.27
2019-03-17T17:45:02.482Z,2.73
2019-03-17T17:50:07.988Z,2.50
2019-03-17T17:55:12.341Z,2.70
2019-03-17T18:00:21.042Z,3.47
2019-03-17T18:05:26.475Z,2.73
2019-03-17T18:10:31.683Z,3.00
2019-03-17T18:15:37.364Z,2.77
2019-03-17T18:20:41.807Z,3.30
2019-03-17T18:25:48.129Z,2.93
2019-03-17T18:30:53.972Z,3.57
2019-03-17T18:35:58.538Z,3.10
2019-03-17T18:41:03.325Z,4.07
2019-03-17T18:46:09.424Z,2.47
2019-03-17T18:51:16.519Z,3.23
2019-03-17T18:56:23.190Z,2.77
2019-03-17T19:01:28.051Z,2.47
2019-03-17T19:06:35.335Z,2.47
2019-03-17T19:11:42.041Z,2.47
2019-03-17T19:16:46.961Z,2.57
2019-03-17T19:21:55.362Z,3.20
2019-03-17T19:27:01.981Z,3.20
2019-03-17T19:32:08.106Z,3.07
2019-03-17T19:37:15.432Z,2.93
2019-03-17T19:42:28.033Z,2.63
2019-03-17T19:47:34.341Z,3.40
2019-03-17T19:52:41.115Z,3.60
2019-03-17T19:57:49.710Z,4.27
2019-03-17T20:02:55.224Z,3.30
2019-03-17T20:08:02.606Z,3.30
2019-03-17T20:13:12.090Z,3.70
2019-03-17T20:18:20.740Z,3.73
2019-03-17T20:23:30.112Z,4.00
2019-03-17T20:28:38.020Z,2.90
2019-03-17T20:33:46.922Z,3.00
2019-03-17T20:38:55.094Z,2.87
2019-03-17T20:44:01.982Z,3.33
2019-03-17T20:49:08.455Z,3.50
2019-03-17T20:54:13.012Z,1.90
2019-03-17T20:59:19.555Z,3.40
2019-03-17T21:04:25.783Z,3.67
2019-03-17T21:09:31.737Z,4.07
2019-03-17T21:14:38.257Z,4.13
2019-03-17T21:19:42.369Z,4.10
2019-03-17T21:24:48.029Z,3.40
2019-03-17T21:29:52.525Z,2.70
2019-03-17T21:34:56.187Z,3.73
2019-03-17T21:39:59.222Z,3.10
2019-03-17T21:45:02.865Z,2.53
2019-03-17T21:50:07.416Z,3.40
2019-03-17T21:55:11.224Z,3.30
2019-03-17T22:00:14.691Z,2.90
2019-03-17T22:05:18.040Z,3.30
2019-03-17T22:10:21.347Z,3.00
2019-03-17T22:15:26.066Z,2.70
2019-03-17T22:20:29.269Z,1.50
2019-03-17T22:25:32.833Z,1.30
2019-03-17T22:30:35.890Z,1.27
2019-03-17T22:35:39.241Z,1.10
2019-03-17T22:40:42.161Z,1.60
2019-03-17T22:45:45.205Z,1.70
2019-03-17T22:50:48.761Z,1.53
2019-03-17T22:55:52.336Z,2.30
2019-03-17T23:00:55.514Z,2.50
2019-03-17T23:05:58.290Z,2.07
2019-03-17T23:11:02.006Z,1.70
2019-03-17T23:16:05.505Z,2.10
2019-03-17T23:21:09.823Z,2.30
2019-03-17T23:26:12.978Z,1.80
2019-03-17T23:31:15.999Z,2.00
2019-03-17T23:36:18.997Z,2.37
2019-03-17T23:41:21.642Z,2.57
2019-03-17T23:46:24.951Z,2.30
2019-03-17T23:51:28.110Z,2.60
2019-03-17T23:56:31.680Z,3.10
